createdAt,value
2016-08-04T05:29:05.321Z,1003.81
2016-08-04T05:30:05.270Z,1003.79
2016-08-04T05:31:05.269Z,1003.76
2016-08-04T05:32:05.268Z,1003.79
2016-08-04T05:33:05.271Z,1003.86
2016-08-04T05:34:05.275Z,1003.86
2016-08-04T05:35:05.279Z,1003.89
2016-08-04T05:37:05.297Z,1003.93
2016-08-04T05:38:05.552Z,1003.94
2016-08-04T05:39:05.901Z,1003.92
2016-08-04T05:40:05.299Z,1003.89
2016-08-04T05:41:05.306Z,1003.87
2016-08-04T05:42:05.312Z,1003.94
2016-08-04T05:43:05.322Z,1003.9
2016-08-04T05:44:05.322Z,1003.91
2016-08-04T05:45:05.329Z,1003.92
2016-08-04T05:46:05.334Z,1003.95
2016-08-04T05:47:05.339Z,1003.96
2016-08-04T05:48:05.346Z,1003.99
2016-08-04T05:49:05.352Z,1004.02
2016-08-04T05:50:05.555Z,1004.04
2016-08-04T05:52:05.370Z,1004.06
2016-08-04T05:53:05.380Z,1004.05
2016-08-04T05:54:05.381Z,1004.02
2016-08-04T05:55:05.390Z,1003.93
2016-08-04T05:56:05.409Z,1003.96
2016-08-04T05:57:05.449Z,1003.92
2016-08-04T05:58:05.448Z,1004.03
2016-08-04T05:59:05.419Z,1003.98
2016-08-04T06:00:05.678Z,1004.03
2016-08-04T06:01:05.426Z,1004.02
2016-08-04T06:02:05.435Z,1003.99
2016-08-04T06:03:05.772Z,1004
2016-08-04T06:04:05.447Z,1004.03
2016-08-04T06:05:05.934Z,1003.99
2016-08-04T06:06:05.460Z,1004.02
2016-08-04T06:07:05.472Z,1004.02
2016-08-04T06:08:05.474Z,1003.99
2016-08-04T06:09:05.547Z,1003.98
2016-08-04T06:10:05.487Z,1004
2016-08-04T06:11:05.494Z,1003.99
2016-08-04T06:12:05.501Z,1004.06
2016-08-04T06:13:05.508Z,1004.06
2016-08-04T06:14:05.514Z,1004.05
2016-08-04T06:15:05.531Z,1004.03
2016-08-04T06:16:05.591Z,1004.06
2016-08-04T06:17:05.534Z,1004.07
2016-08-04T06:18:05.546Z,1004.14
2016-08-04T06:19:05.643Z,1004.12
2016-08-04T06:20:05.555Z,1004.14
2016-08-04T06:21:05.664Z,1004.09
2016-08-04T06:22:05.568Z,1004.12
2016-08-04T06:23:05.629Z,1004.11
2016-08-04T06:24:05.583Z,1004.14
2016-08-04T06:25:05.588Z,1004.12
2016-08-04T06:26:05.596Z,1004.09
2016-08-04T06:27:05.602Z,1004.1
2016-08-04T06:28:05.609Z,1004.15
2016-08-04T06:29:05.615Z,1004.11
2016-08-04T06:30:05.653Z,1004.11
2016-08-04T06:31:05.630Z,1004.17
2016-08-04T06:32:05.636Z,1004.18
2016-08-04T06:33:05.644Z,1004.22
2016-08-04T06:34:05.649Z,1004.22
2016-08-04T06:35:05.815Z,1004.21
2016-08-04T06:36:05.663Z,1004.21
2016-08-04T06:37:05.669Z,1004.18
2016-08-04T06:38:05.676Z,1004.23
2016-08-04T06:39:05.684Z,1004.21
2016-08-04T06:40:05.692Z,1004.19
2016-08-04T06:41:05.698Z,1004.25
2016-08-04T06:42:05.703Z,1004.25
2016-08-04T06:43:05.804Z,1004.3
2016-08-04T06:44:05.721Z,1004.3
2016-08-04T06:45:05.974Z,1004.3
2016-08-04T06:46:05.732Z,1004.29
2016-08-04T06:47:05.737Z,1004.35
2016-08-04T06:48:05.745Z,1004.32
2016-08-04T06:49:05.755Z,1004.27
2016-08-04T06:50:05.759Z,1004.33
2016-08-04T06:51:05.768Z,1004.25
2016-08-04T06:52:05.809Z,1004.23
2016-08-04T06:53:05.788Z,1004.28
2016-08-04T06:54:05.785Z,1004.3
2016-08-04T06:55:05.802Z,1004.29
2016-08-04T06:56:05.800Z,1004.3
2016-08-04T06:57:05.807Z,1004.34
2016-08-04T06:58:05.813Z,1004.35
2016-08-04T06:59:05.820Z,1004.32
2016-08-04T07:00:05.826Z,1004.32
2016-08-04T07:01:05.834Z,1004.33
2016-08-04T07:02:05.840Z,1004.33
2016-08-04T07:03:05.847Z,1004.36
2016-08-04T07:04:05.855Z,1004.35
2016-08-04T07:05:05.861Z,1004.36
2016-08-04T07:06:05.871Z,1004.33
2016-08-04T07:07:05.874Z,1004.33
2016-08-04T07:08:05.882Z,1004.32
2016-08-04T07:09:05.889Z,1004.36
2016-08-04T07:10:05.897Z,1004.33
2016-08-04T07:11:05.901Z,1004.33
2016-08-04T07:12:05.909Z,1004.29
2016-08-04T07:13:06.156Z,1004.29
2016-08-04T07:14:05.923Z,1004.3
2016-08-04T07:15:05.929Z,1004.31
2016-08-04T07:16:05.935Z,1004.35
2016-08-04T07:17:05.943Z,1004.33
2016-08-04T07:18:05.950Z,1004.39
2016-08-04T07:19:05.961Z,1004.41
2016-08-04T07:20:06.057Z,1004.42
2016-08-04T07:21:05.969Z,1004.45
2016-08-04T07:22:06.095Z,1004.42
2016-08-04T07:23:05.984Z,1004.45
2016-08-04T07:24:06.036Z,1004.49
2016-08-04T07:25:06.088Z,1004.49
2016-08-04T07:26:06.003Z,1004.46
2016-08-04T07:27:06.011Z,1004.48
2016-08-04T07:28:06.061Z,1004.49
2016-08-04T07:29:06.109Z,1004.5
2016-08-04T07:30:06.114Z,1004.47
2016-08-04T07:31:06.092Z,1004.45
2016-08-04T07:32:06.050Z,1004.4
2016-08-04T07:33:06.334Z,1004.46
2016-08-04T07:34:06.058Z,1004.4
2016-08-04T07:35:06.066Z,1004.41
2016-08-04T07:36:06.071Z,1004.41
2016-08-04T07:37:06.076Z,1004.42
2016-08-04T07:38:06.084Z,1004.41
2016-08-04T07:39:06.092Z,1004.4
2016-08-04T07:40:06.098Z,1004.42
2016-08-04T07:41:06.124Z,1004.44
2016-08-04T07:42:06.110Z,1004.49
2016-08-04T07:43:06.118Z,1004.5
2016-08-04T07:44:06.123Z,1004.5
2016-08-04T07:45:06.131Z,1004.5
2016-08-04T07:46:06.138Z,1004.51
2016-08-04T07:47:06.143Z,1004.55
2016-08-04T07:48:06.150Z,1004.55
2016-08-04T07:49:06.172Z,1004.56
2016-08-04T07:50:06.167Z,1004.58
2016-08-04T07:51:06.173Z,1004.57
2016-08-04T07:52:06.178Z,1004.54
2016-08-04T07:53:06.183Z,1004.56
2016-08-04T07:54:06.195Z,1004.59
2016-08-04T07:55:06.204Z,1004.64
2016-08-04T07:56:06.205Z,1004.66
2016-08-04T07:57:06.211Z,1004.69
2016-08-04T07:58:06.229Z,1004.69
2016-08-04T07:59:06.225Z,1004.74
2016-08-04T08:00:06.232Z,1004.71
2016-08-04T08:01:06.238Z,1004.75
2016-08-04T08:02:06.244Z,1004.75
2016-08-04T08:03:06.502Z,1004.81
2016-08-04T08:04:06.264Z,1004.77
2016-08-04T08:05:06.265Z,1004.74
2016-08-04T08:06:06.271Z,1004.77
2016-08-04T08:07:06.278Z,1004.76
2016-08-04T08:08:06.288Z,1004.82
2016-08-04T08:09:06.299Z,1004.81
2016-08-04T08:10:06.298Z,1004.79
2016-08-04T08:11:06.306Z,1004.78
2016-08-04T08:12:06.313Z,1004.75
2016-08-04T08:13:06.318Z,1004.78
2016-08-04T08:14:06.327Z,1004.79
2016-08-04T08:15:06.333Z,1004.82
2016-08-04T08:16:06.341Z,1004.84
2016-08-04T08:17:06.348Z,1004.85
2016-08-04T08:18:06.354Z,1004.84
2016-08-04T08:19:06.360Z,1004.83
2016-08-04T08:20:06.367Z,1004.8
2016-08-04T08:21:06.374Z,1004.84
2016-08-04T08:22:06.381Z,1004.82
2016-08-04T08:23:06.389Z,1004.86
2016-08-04T08:24:06.394Z,1004.82
2016-08-04T08:25:06.401Z,1004.84
2016-08-04T08:26:06.407Z,1004.81
2016-08-04T08:27:06.414Z,1004.8
2016-08-04T08:28:06.421Z,1004.79
2016-08-04T08:29:06.427Z,1004.81
2016-08-04T08:30:06.434Z,1004.77
2016-08-04T08:31:06.441Z,1004.79
2016-08-04T08:32:06.448Z,1004.82
2016-08-04T08:33:06.455Z,1004.76
2016-08-04T08:34:06.465Z,1004.85
2016-08-04T08:35:06.466Z,1004.79
2016-08-04T08:36:06.475Z,1004.84
2016-08-04T08:37:06.564Z,1004.81
2016-08-04T08:38:06.488Z,1004.83
2016-08-04T08:39:06.495Z,1004.83
2016-08-04T08:40:06.502Z,1004.89
2016-08-04T08:41:06.511Z,1004.9
2016-08-04T08:42:06.519Z,1004.93
2016-08-04T08:43:06.522Z,1004.93
2016-08-04T08:44:06.530Z,1004.93
2016-08-04T08:45:06.537Z,1004.92
2016-08-04T08:46:06.542Z,1004.96
2016-08-04T08:47:06.550Z,1004.96
2016-08-04T08:48:06.557Z,1005
2016-08-04T08:49:06.564Z,1004.98
2016-08-04T08:50:06.571Z,1004.99
2016-08-04T08:51:06.578Z,1004.96
2016-08-04T08:52:06.584Z,1004.93
2016-08-04T08:53:06.591Z,1005
2016-08-04T08:54:06.597Z,1005.04
2016-08-04T08:55:06.604Z,1005.05
2016-08-04T08:56:06.611Z,1005.06
2016-08-04T08:57:06.618Z,1005.13
2016-08-04T08:58:06.626Z,1005.14
2016-08-04T08:59:06.632Z,1005.12
2016-08-04T09:00:06.638Z,1005.13
2016-08-04T09:01:06.644Z,1005.2
2016-08-04T09:02:06.653Z,1005.16
2016-08-04T09:03:06.669Z,1005.22
2016-08-04T09:04:06.664Z,1005.18
2016-08-04T09:05:06.671Z,1005.15
2016-08-04T09:06:06.678Z,1005.16
2016-08-04T09:07:06.686Z,1005.15
2016-08-04T09:08:06.691Z,1005.1
2016-08-04T09:09:06.699Z,1005.09
2016-08-04T09:10:06.733Z,1005.04
2016-08-04T09:11:06.711Z,1005.02
2016-08-04T09:12:06.725Z,1005.04
2016-08-04T09:13:06.725Z,1005.03
2016-08-04T09:14:06.732Z,1005.01
2016-08-04T09:15:06.745Z,1005.07
2016-08-04T09:16:06.744Z,1005.08
2016-08-04T09:17:06.752Z,1005.08
2016-08-04T09:18:06.759Z,1005.04
2016-08-04T09:19:06.764Z,1004.97
2016-08-04T09:20:06.786Z,1004.96
2016-08-04T09:21:06.779Z,1004.94
2016-08-04T09:22:06.786Z,1004.94
2016-08-04T09:23:06.793Z,1004.98
2016-08-04T09:24:06.803Z,1004.92
2016-08-04T09:25:06.806Z,1004.97
2016-08-04T09:26:06.812Z,1004.99
2016-08-04T09:27:06.820Z,1005.01
2016-08-04T09:28:06.827Z,1005.01
2016-08-04T09:29:06.833Z,1005.02
2016-08-04T09:30:06.840Z,1005.05
2016-08-04T09:31:06.846Z,1005.05
2016-08-04T09:32:06.856Z,1005.04
2016-08-04T09:33:06.860Z,1005.1
2016-08-04T09:34:06.866Z,1005.09
2016-08-04T09:35:06.874Z,1005.05
2016-08-04T09:36:06.881Z,1005.01
2016-08-04T09:37:06.913Z,1005.01
2016-08-04T09:38:06.919Z,1004.96
2016-08-04T09:39:06.921Z,1004.97
2016-08-04T09:40:06.929Z,1004.98
2016-08-04T09:41:06.942Z,1005.03
2016-08-04T09:42:06.925Z,1005.04
2016-08-04T09:43:06.941Z,1005.07
2016-08-04T09:44:06.935Z,1005.09
2016-08-04T09:45:06.945Z,1005.09
2016-08-04T09:46:06.948Z,1005.05
2016-08-04T09:47:06.956Z,1005.08
2016-08-04T09:48:06.962Z,1005.08
2016-08-04T09:49:06.967Z,1005.04
2016-08-04T09:50:06.975Z,1005.06
2016-08-04T09:51:06.982Z,1005.08
2016-08-04T09:52:06.988Z,1005.06
2016-08-04T09:53:06.996Z,1005.09
2016-08-04T09:54:07.007Z,1005.09
2016-08-04T09:55:07.008Z,1005.09
2016-08-04T09:56:07.014Z,1005.14
2016-08-04T09:57:07.021Z,1005.14
2016-08-04T09:58:07.029Z,1005.12
2016-08-04T09:59:07.035Z,1005.15
2016-08-04T10:00:07.047Z,1005.13
2016-08-04T10:01:07.049Z,1005.14
2016-08-04T10:02:07.095Z,1005.16
2016-08-04T10:03:07.061Z,1005.12
2016-08-04T10:04:07.069Z,1005.1
2016-08-04T10:05:07.077Z,1005.14
2016-08-04T10:06:07.082Z,1005.12
2016-08-04T10:07:07.087Z,1005.08
2016-08-04T10:08:07.096Z,1005.06
2016-08-04T10:09:07.105Z,1005.05
2016-08-04T10:10:07.117Z,1005.09
2016-08-04T10:11:07.116Z,1005.06
2016-08-04T10:12:07.382Z,1005.07
2016-08-04T10:13:07.130Z,1005.03
2016-08-04T10:14:07.135Z,1005.03
2016-08-04T10:15:07.144Z,1004.99
2016-08-04T10:16:07.152Z,1004.97
2016-08-04T10:17:07.157Z,1004.96
2016-08-04T10:18:07.162Z,1004.97
2016-08-04T10:19:07.170Z,1004.93
2016-08-04T10:20:07.176Z,1004.91
2016-08-04T10:21:07.185Z,1004.96
2016-08-04T10:23:07.197Z,1004.92
2016-08-04T10:24:07.202Z,1004.91
2016-08-04T10:25:07.210Z,1004.85
2016-08-04T10:26:07.302Z,1004.88
2016-08-04T10:27:07.224Z,1004.86
2016-08-04T10:28:07.230Z,1004.93
2016-08-04T10:29:07.237Z,1004.87
2016-08-04T10:30:07.244Z,1004.86
2016-08-04T10:31:07.250Z,1004.88
2016-08-04T10:32:07.610Z,1004.94
2016-08-04T10:33:07.263Z,1004.93
2016-08-04T10:34:07.271Z,1004.92
2016-08-04T10:35:07.276Z,1004.95
2016-08-04T10:36:07.297Z,1004.94
2016-08-04T10:37:07.292Z,1004.92
2016-08-04T10:38:07.298Z,1004.92
2016-08-04T10:39:07.304Z,1004.93
2016-08-04T10:40:07.309Z,1004.91
2016-08-04T10:41:07.317Z,1004.91
2016-08-04T10:42:07.330Z,1004.85
2016-08-04T10:43:07.330Z,1004.86
2016-08-04T10:44:07.339Z,1004.85
2016-08-04T10:45:07.397Z,1004.88
2016-08-04T10:46:07.412Z,1004.92
2016-08-04T10:47:07.389Z,1004.88
2016-08-04T10:48:07.420Z,1004.89
2016-08-04T10:49:07.441Z,1004.91
2016-08-04T10:50:07.446Z,1004.9
2016-08-04T10:51:07.438Z,1004.91
2016-08-04T10:52:07.476Z,1004.92
2016-08-04T10:53:07.467Z,1004.86
2016-08-04T10:54:07.524Z,1004.9
2016-08-04T10:55:07.457Z,1004.8
2016-08-04T10:56:07.787Z,1004.87
2016-08-04T10:57:07.429Z,1004.8
2016-08-04T10:58:07.947Z,1004.84
2016-08-04T10:59:07.438Z,1004.82
2016-08-04T11:00:07.445Z,1004.93
2016-08-04T11:01:07.451Z,1004.95
2016-08-04T11:02:07.457Z,1005.01
2016-08-04T11:03:07.465Z,1005.02
2016-08-04T11:04:07.473Z,1005.02
2016-08-04T11:05:07.477Z,1004.98
2016-08-04T11:06:07.485Z,1005.04
2016-08-04T11:07:07.491Z,1005.04
2016-08-04T11:08:07.502Z,1005.05
2016-08-04T11:09:07.504Z,1005.03
2016-08-04T11:10:07.511Z,1004.95
2016-08-04T11:11:07.518Z,1005.03
2016-08-04T11:12:07.530Z,1004.97
2016-08-04T11:13:07.531Z,1005
2016-08-04T11:14:07.538Z,1005.07
2016-08-04T11:15:07.546Z,1004.99
2016-08-04T11:16:07.552Z,1005.02
2016-08-04T11:17:07.559Z,1005
2016-08-04T11:18:07.566Z,1005
2016-08-04T11:19:07.571Z,1004.98
2016-08-04T11:20:07.579Z,1004.99
2016-08-04T11:21:07.586Z,1005.06
2016-08-04T11:22:07.591Z,1005.08
2016-08-04T11:23:07.599Z,1005.04
2016-08-04T11:24:07.606Z,1005.04
2016-08-04T11:25:07.612Z,1005.01
2016-08-04T11:26:07.618Z,1005.08
2016-08-04T11:27:07.624Z,1005.12
2016-08-04T11:28:07.632Z,1005.05
2016-08-04T11:29:07.640Z,1005.06
2016-08-04T11:30:07.646Z,1005.08
2016-08-04T11:31:07.652Z,1005.07
2016-08-04T11:32:07.659Z,1005.08
2016-08-04T11:33:07.665Z,1005.01
2016-08-04T11:34:07.687Z,1005.1
2016-08-04T11:35:07.678Z,1005.05
2016-08-04T11:36:07.687Z,1005.12
2016-08-04T11:37:07.700Z,1005.05
2016-08-04T11:38:07.699Z,1005.11
2016-08-04T11:39:07.712Z,1005.14
2016-08-04T11:40:07.718Z,1005.12
2016-08-04T11:41:07.719Z,1005.13
2016-08-04T11:42:07.743Z,1005.14
2016-08-04T11:43:07.732Z,1005.1
2016-08-04T11:44:07.740Z,1005.11
2016-08-04T11:45:07.747Z,1005.07
2016-08-04T11:46:07.753Z,1005.05
2016-08-04T11:47:07.759Z,1005.05
2016-08-04T11:48:07.766Z,1005.02
2016-08-04T11:49:07.773Z,1005.05
2016-08-04T11:50:07.782Z,1005.07
2016-08-04T11:51:07.786Z,1005.07
2016-08-04T11:52:07.793Z,1005.11
2016-08-04T11:53:07.800Z,1005.1
2016-08-04T11:54:07.808Z,1005.1
2016-08-04T11:55:07.814Z,1005.13
2016-08-04T11:56:07.819Z,1005.16
2016-08-04T11:57:07.827Z,1005.13
2016-08-04T11:58:07.883Z,1005.14
2016-08-04T11:59:07.851Z,1005.11
2016-08-04T12:00:08.111Z,1005.14
2016-08-04T12:01:07.855Z,1005.16
2016-08-04T12:02:07.860Z,1005.18
2016-08-04T12:03:07.867Z,1005.16
2016-08-04T12:04:07.874Z,1005.19
2016-08-04T12:05:07.887Z,1005.2
2016-08-04T12:06:07.889Z,1005.22
2016-08-04T12:07:07.895Z,1005.14
2016-08-04T12:08:07.900Z,1005.12
2016-08-04T12:09:07.919Z,1005.11
2016-08-04T12:10:07.915Z,1005.03
2016-08-04T12:11:07.921Z,1005.15
2016-08-04T12:12:07.937Z,1005.15
2016-08-04T12:13:07.933Z,1005.17
2016-08-04T12:14:07.941Z,1005.15
2016-08-04T12:15:07.947Z,1005.13
2016-08-04T12:16:07.955Z,1005.15
2016-08-04T12:17:07.960Z,1005.19
2016-08-04T12:18:07.968Z,1005.23
2016-08-04T12:19:07.980Z,1005.23
2016-08-04T12:20:07.981Z,1005.28
2016-08-04T12:21:07.987Z,1005.26
2016-08-04T12:22:08.240Z,1005.24
2016-08-04T12:23:08.001Z,1005.24
2016-08-04T12:24:08.015Z,1005.2
2016-08-04T12:25:08.019Z,1005.16
2016-08-04T12:26:08.022Z,1005.22
2016-08-04T12:27:08.031Z,1005.2
2016-08-04T12:28:08.034Z,1005.22
2016-08-04T12:29:08.040Z,1005.24
2016-08-04T12:30:08.152Z,1005.26
2016-08-04T12:31:08.132Z,1005.28
2016-08-04T12:32:08.061Z,1005.3
2016-08-04T12:33:08.071Z,1005.28
2016-08-04T12:34:08.076Z,1005.3
2016-08-04T12:35:08.082Z,1005.31
2016-08-04T12:36:08.087Z,1005.34
2016-08-04T12:37:08.094Z,1005.33
2016-08-04T12:38:08.103Z,1005.29
2016-08-04T12:39:08.109Z,1005.26
2016-08-04T12:40:08.115Z,1005.27
2016-08-04T12:41:08.122Z,1005.29
2016-08-04T12:42:08.375Z,1005.26
2016-08-04T12:43:08.134Z,1005.3
2016-08-04T12:44:08.140Z,1005.3
2016-08-04T12:45:08.146Z,1005.32
2016-08-04T12:46:08.155Z,1005.35
2016-08-04T12:47:08.161Z,1005.38
2016-08-04T12:48:08.167Z,1005.35
2016-08-04T12:49:08.175Z,1005.43
2016-08-04T12:50:08.183Z,1005.35
2016-08-04T12:51:08.188Z,1005.38
2016-08-04T12:52:08.194Z,1005.41
2016-08-04T12:53:08.214Z,1005.39
2016-08-04T12:54:08.208Z,1005.41
2016-08-04T12:55:08.215Z,1005.42
2016-08-04T12:56:08.221Z,1005.4
2016-08-04T12:57:08.227Z,1005.38
2016-08-04T12:58:08.234Z,1005.35
2016-08-04T12:59:08.241Z,1005.36
2016-08-04T13:00:08.248Z,1005.37
2016-08-04T13:01:08.255Z,1005.39
2016-08-04T13:02:08.265Z,1005.4
2016-08-04T13:03:08.268Z,1005.39
2016-08-04T13:04:08.276Z,1005.37
2016-08-04T13:05:08.282Z,1005.4
2016-08-04T13:06:08.315Z,1005.42
2016-08-04T13:07:08.294Z,1005.41
2016-08-04T13:08:08.301Z,1005.42
2016-08-04T13:09:08.306Z,1005.4
2016-08-04T13:10:08.314Z,1005.38
2016-08-04T13:11:08.321Z,1005.41
2016-08-04T13:12:08.328Z,1005.4
2016-08-04T13:13:08.332Z,1005.41
2016-08-04T13:14:08.342Z,1005.41
2016-08-04T13:15:08.349Z,1005.4
2016-08-04T13:16:08.354Z,1005.41
2016-08-04T13:17:08.361Z,1005.41
2016-08-04T13:18:08.367Z,1005.43
2016-08-04T13:19:08.375Z,1005.46
2016-08-04T13:20:08.381Z,1005.44
2016-08-04T13:21:08.386Z,1005.46
2016-08-04T13:22:08.394Z,1005.47
2016-08-04T13:23:08.401Z,1005.48
2016-08-04T13:24:08.419Z,1005.47
2016-08-04T13:25:08.414Z,1005.47
2016-08-04T13:26:08.421Z,1005.45
2016-08-04T13:27:08.429Z,1005.5
2016-08-04T13:28:08.433Z,1005.49
2016-08-04T13:29:08.440Z,1005.48
2016-08-04T13:30:08.498Z,1005.5
2016-08-04T13:31:08.456Z,1005.52
2016-08-04T13:32:08.462Z,1005.54
2016-08-04T13:33:08.469Z,1005.51
2016-08-04T13:34:08.473Z,1005.55
2016-08-04T13:35:08.481Z,1005.55
2016-08-04T13:37:08.500Z,1005.51
2016-08-04T13:38:08.500Z,1005.53
2016-08-04T13:39:08.508Z,1005.54
2016-08-04T13:40:08.515Z,1005.56
2016-08-04T13:41:08.520Z,1005.53
2016-08-04T13:42:08.539Z,1005.56
2016-08-04T13:43:08.533Z,1005.48
2016-08-04T13:44:08.540Z,1005.48
2016-08-04T13:45:08.550Z,1005.53
2016-08-04T13:46:08.551Z,1005.46
2016-08-04T13:47:08.559Z,1005.49
2016-08-04T13:48:08.565Z,1005.46
2016-08-04T13:49:08.572Z,1005.45
2016-08-04T13:50:08.579Z,1005.45
2016-08-04T13:51:08.588Z,1005.47
2016-08-04T13:52:08.591Z,1005.47
2016-08-04T13:53:08.596Z,1005.49
2016-08-04T13:54:08.605Z,1005.47
2016-08-04T13:55:08.613Z,1005.46
2016-08-04T13:56:08.618Z,1005.47
2016-08-04T13:57:08.625Z,1005.48
2016-08-04T13:58:08.631Z,1005.51
2016-08-04T13:59:09.279Z,1005.5
2016-08-04T14:00:08.645Z,1005.53
2016-08-04T14:01:08.650Z,1005.55
2016-08-04T14:02:08.658Z,1005.52
2016-08-04T14:03:08.663Z,1005.53
2016-08-04T14:04:08.669Z,1005.51
2016-08-04T14:05:08.677Z,1005.46
2016-08-04T14:06:08.686Z,1005.49
2016-08-04T14:07:08.689Z,1005.51
2016-08-04T14:08:08.697Z,1005.52
2016-08-04T14:09:08.704Z,1005.49
2016-08-04T14:10:08.711Z,1005.5
2016-08-04T14:11:08.717Z,1005.53
2016-08-04T14:12:08.722Z,1005.56
2016-08-04T14:13:08.730Z,1005.52
2016-08-04T14:14:08.738Z,1005.56
2016-08-04T14:15:08.743Z,1005.53
2016-08-04T14:16:08.749Z,1005.61
2016-08-04T14:17:08.756Z,1005.56
2016-08-04T14:18:08.762Z,1005.51
2016-08-04T14:19:08.768Z,1005.5
2016-08-04T14:20:08.776Z,1005.52
2016-08-04T14:21:08.781Z,1005.49
2016-08-04T14:22:08.789Z,1005.5
2016-08-04T14:23:08.795Z,1005.49
2016-08-04T14:24:08.801Z,1005.54
2016-08-04T14:25:08.807Z,1005.53
2016-08-04T14:26:08.815Z,1005.51
2016-08-04T14:27:08.822Z,1005.49
2016-08-04T14:28:15.095Z,1005.46
2016-08-04T14:29:08.833Z,1005.45
2016-08-04T14:30:09.158Z,1005.46
2016-08-04T14:31:08.848Z,1005.44
2016-08-04T14:32:08.854Z,1005.43
2016-08-04T14:33:08.860Z,1005.4
2016-08-04T14:34:08.873Z,1005.42
2016-08-04T14:35:08.875Z,1005.37
2016-08-04T14:36:08.879Z,1005.38
2016-08-04T14:37:08.886Z,1005.37
2016-08-04T14:38:08.893Z,1005.39
2016-08-04T14:39:08.900Z,1005.36
2016-08-04T14:40:08.918Z,1005.35
2016-08-04T14:41:08.916Z,1005.4
2016-08-04T14:42:08.919Z,1005.37
2016-08-04T14:43:08.927Z,1005.43
2016-08-04T14:44:08.931Z,1005.42
2016-08-04T14:45:08.939Z,1005.39
2016-08-04T14:46:08.951Z,1005.41
2016-08-04T14:47:08.952Z,1005.42
2016-08-04T14:48:08.957Z,1005.44
2016-08-04T14:49:08.966Z,1005.38
2016-08-04T14:50:08.971Z,1005.35
2016-08-04T14:51:08.978Z,1005.37
2016-08-04T14:52:08.984Z,1005.32
2016-08-04T14:54:08.998Z,1005.35
2016-08-04T14:55:09.004Z,1005.37
2016-08-04T14:56:09.011Z,1005.39
2016-08-04T14:57:09.017Z,1005.36
2016-08-04T14:58:09.024Z,1005.29
2016-08-04T14:59:09.032Z,1005.24
2016-08-04T15:00:09.038Z,1005.24
2016-08-04T15:01:09.046Z,1005.21
2016-08-04T15:02:09.052Z,1005.19
2016-08-04T15:03:09.057Z,1005.17
2016-08-04T15:04:09.065Z,1005.19
2016-08-04T15:05:09.072Z,1005.23
2016-08-04T15:06:09.077Z,1005.19
2016-08-04T15:07:09.085Z,1005.19
2016-08-04T15:08:09.091Z,1005.17
2016-08-04T15:09:09.096Z,1005.16
2016-08-04T15:10:09.104Z,1005.13
2016-08-04T15:11:09.111Z,1005.13
2016-08-04T15:12:09.117Z,1005.1
2016-08-04T15:13:09.123Z,1005.1
2016-08-04T15:14:09.141Z,1005.09
2016-08-04T15:15:09.136Z,1005.07
2016-08-04T15:16:09.142Z,1005.13
2016-08-04T15:17:09.149Z,1005.17
2016-08-04T15:18:09.155Z,1005.18
2016-08-04T15:19:09.162Z,1005.18
2016-08-04T15:20:09.169Z,1005.19
2016-08-04T15:21:09.175Z,1005.23
2016-08-04T15:22:09.185Z,1005.2
2016-08-04T15:23:09.188Z,1005.31
2016-08-04T15:24:09.194Z,1005.28
2016-08-04T15:25:09.201Z,1005.32
2016-08-04T15:26:09.209Z,1005.36
2016-08-04T15:27:09.215Z,1005.35
2016-08-04T15:28:09.220Z,1005.38
2016-08-04T15:29:09.227Z,1005.29
2016-08-04T15:30:09.234Z,1005.3
2016-08-04T15:31:09.239Z,1005.31
2016-08-04T15:32:09.246Z,1005.31
2016-08-04T15:33:09.253Z,1005.32
2016-08-04T15:34:09.259Z,1005.3
2016-08-04T15:35:09.265Z,1005.29
2016-08-04T15:36:09.272Z,1005.32
2016-08-04T15:37:09.279Z,1005.36
2016-08-04T15:38:09.286Z,1005.33
2016-08-04T15:39:09.292Z,1005.35
2016-08-04T15:40:09.298Z,1005.29
2016-08-04T15:41:09.306Z,1005.43
2016-08-04T15:42:09.310Z,1005.51
2016-08-04T15:43:09.318Z,1005.47
2016-08-04T15:44:09.325Z,1005.45
2016-08-04T15:45:09.333Z,1005.48
2016-08-04T15:46:09.337Z,1005.49
2016-08-04T15:47:09.344Z,1005.46
2016-08-04T15:48:09.350Z,1005.46
2016-08-04T15:49:09.357Z,1005.44
2016-08-04T15:50:09.363Z,1005.45
2016-08-04T15:51:09.370Z,1005.37
2016-08-04T15:52:09.376Z,1005.38
2016-08-04T15:53:09.383Z,1005.38
2016-08-04T15:54:09.389Z,1005.33
2016-08-04T15:55:09.396Z,1005.38
2016-08-04T15:56:09.402Z,1005.33
2016-08-04T15:57:09.409Z,1005.44
2016-08-04T15:58:09.416Z,1005.43
2016-08-04T15:59:09.422Z,1005.35
2016-08-04T16:00:09.428Z,1005.37
2016-08-04T16:01:09.436Z,1005.36
2016-08-04T16:02:09.441Z,1005.35
2016-08-04T16:03:09.449Z,1005.35
2016-08-04T16:04:09.455Z,1005.39
2016-08-04T16:05:09.461Z,1005.39
2016-08-04T16:06:09.468Z,1005.39
2016-08-04T16:07:09.588Z,1005.39
2016-08-04T16:08:09.864Z,1005.39
2016-08-04T16:09:09.596Z,1005.4
2016-08-04T16:10:09.494Z,1005.37
2016-08-04T16:11:09.615Z,1005.35
2016-08-04T16:12:09.580Z,1005.33
2016-08-04T16:13:09.599Z,1005.37
2016-08-04T16:14:09.685Z,1005.35
2016-08-04T16:15:09.618Z,1005.33
2016-08-04T16:16:09.917Z,1005.31
2016-08-04T16:17:09.571Z,1005.34
2016-08-04T16:18:09.659Z,1005.38
2016-08-04T16:19:09.659Z,1005.36
2016-08-04T16:20:09.683Z,1005.37
2016-08-04T16:21:09.568Z,1005.39
2016-08-04T16:22:09.573Z,1005.38
2016-08-04T16:23:09.660Z,1005.36
2016-08-04T16:24:09.616Z,1005.38
2016-08-04T16:25:09.721Z,1005.36
2016-08-04T16:26:09.658Z,1005.39
2016-08-04T16:27:09.913Z,1005.33
2016-08-04T16:28:09.612Z,1005.37
2016-08-04T16:29:09.648Z,1005.31
2016-08-04T16:30:09.623Z,1005.34
2016-08-04T16:31:09.631Z,1005.33
2016-08-04T16:32:09.767Z,1005.27
2016-08-04T16:33:09.644Z,1005.27
2016-08-04T16:34:09.691Z,1005.26
2016-08-04T16:35:09.733Z,1005.29
2016-08-04T16:36:09.705Z,1005.29
2016-08-04T16:37:10.044Z,1005.3
2016-08-04T16:38:09.689Z,1005.32
2016-08-04T16:39:09.796Z,1005.26
2016-08-04T16:40:09.692Z,1005.26
2016-08-04T16:41:09.816Z,1005.26
2016-08-04T16:42:09.801Z,1005.26
2016-08-04T16:43:09.798Z,1005.21
2016-08-04T16:44:09.800Z,1005.21
2016-08-04T16:45:10.135Z,1005.16
2016-08-04T16:46:09.947Z,1005.17
2016-08-04T16:47:09.865Z,1005.19
2016-08-04T16:48:09.796Z,1005.2
2016-08-04T16:49:09.851Z,1005.23
2016-08-04T16:50:09.836Z,1005.26
2016-08-04T16:51:09.856Z,1005.27
2016-08-04T16:52:09.768Z,1005.3
2016-08-04T16:53:09.899Z,1005.25
2016-08-04T16:54:09.906Z,1005.31
2016-08-04T16:55:09.835Z,1005.36
2016-08-04T16:56:09.904Z,1005.3
2016-08-04T16:57:09.906Z,1005.34
2016-08-04T16:58:09.909Z,1005.34
2016-08-04T16:59:09.913Z,1005.32
2016-08-04T17:00:09.936Z,1005.3
2016-08-04T17:01:09.845Z,1005.32
2016-08-04T17:02:09.972Z,1005.3
2016-08-04T17:03:09.954Z,1005.32
2016-08-04T17:04:09.962Z,1005.3
2016-08-04T17:05:09.960Z,1005.31
2016-08-04T17:06:09.986Z,1005.27
2016-08-04T17:07:09.972Z,1005.26
2016-08-04T17:08:09.986Z,1005.23
2016-08-04T17:09:09.983Z,1005.23
2016-08-04T17:10:10.012Z,1005.22
2016-08-04T17:11:10.017Z,1005.25
2016-08-04T17:12:09.909Z,1005.22
2016-08-04T17:13:10.007Z,1005.23
2016-08-04T17:14:09.928Z,1005.23
2016-08-04T17:15:10.041Z,1005.22
2016-08-04T17:16:10.054Z,1005.21
2016-08-04T17:17:10.059Z,1005.23
2016-08-04T17:18:10.060Z,1005.22
2016-08-04T17:19:10.045Z,1005.22
2016-08-04T17:20:10.050Z,1005.26
2016-08-04T17:21:10.077Z,1005.25
2016-08-04T17:22:09.984Z,1005.25
2016-08-04T17:23:10.092Z,1005.29
2016-08-04T17:24:10.084Z,1005.29
2016-08-04T17:25:10.589Z,1005.31
2016-08-04T17:26:09.991Z,1005.31
2016-08-04T17:27:10.112Z,1005.29
2016-08-04T17:28:10.121Z,1005.31
2016-08-04T17:29:10.125Z,1005.32
2016-08-04T17:30:10.137Z,1005.31
2016-08-04T17:31:10.080Z,1005.32
2016-08-04T17:32:10.146Z,1005.29
2016-08-04T17:33:10.034Z,1005.28
2016-08-04T17:34:10.170Z,1005.29
2016-08-04T17:35:10.162Z,1005.31
2016-08-04T17:36:10.156Z,1005.28
2016-08-04T17:37:10.179Z,1005.25
2016-08-04T17:38:10.195Z,1005.27
2016-08-04T17:39:10.194Z,1005.24
2016-08-04T17:40:10.176Z,1005.27
2016-08-04T17:41:10.185Z,1005.25
2016-08-04T17:42:10.206Z,1005.25